Terminal Aerodrome Forecast
Issued by NWS

Home | Current Version | Previous Version | Text Only | Print | Product List | Glossary On
Versions: 1 2 3 4 5 6 7 8 9 10 11 12
000
FTUS45 KRIW 291100
TAFRKS
TAF
KRKS 291134Z 2912/3012 28008KT P6SM VCSH SCT090 BKN120
     FM291600 05008KT P6SM VCSH SCT040 OVC070
     FM291900 06011KT P6SM VCTS FEW030 OVC050CB
     FM300130 06015KT 6SM SHRA SCT030 OVC050
     FM300600 06015G25KT P6SM VCSH SCT025 BKN040=

USA.gov is the U.S. government's official web portal to all federal, state and local government web resources and services.